Time;durP1;ratioP1;P1;durP2;ratioP2;P2;SDS_P1;SDS_P2;PMS_P1;PMS_P2;Temp;Humidity;BMP_temperature;BMP_pressure;BME280_temperature;BME280_humidity;BME280_pressure;Samples;Min_cycle;Max_cycle;Signal;HPM_P1;HPM_P2
2021/06/03 00:01:50;;;;;;;1.80;1.47;;;32.40;45.70;;;;;;5168031;27;20449;-42
2021/06/03 00:04:21;;;;;;;1.30;1.07;;;32.30;46.30;;;;;;5167114;27;20450;-41
2021/06/03 00:06:51;;;;;;;2.00;1.17;;;32.10;46.10;;;;;;5167723;27;20531;-42
2021/06/03 00:09:22;;;;;;;1.90;1.60;;;32.00;47.20;;;;;;5167087;27;20511;-41
2021/06/03 00:11:53;;;;;;;1.43;1.33;;;32.00;47.70;;;;;;5167977;27;20431;-41
2021/06/03 00:14:25;;;;;;;2.93;1.47;;;32.00;47.80;;;;;;5167141;27;20508;-41
2021/06/03 00:16:56;;;;;;;1.23;1.23;;;32.00;48.00;;;;;;5167446;27;20448;-41
2021/06/03 00:19:26;;;;;;;3.63;1.20;;;31.90;48.20;;;;;;5167132;27;20449;-41
2021/06/03 00:21:57;;;;;;;1.20;1.10;;;31.90;48.40;;;;;;5167315;27;20486;-41
2021/06/03 00:24:27;;;;;;;2.77;1.40;;;32.00;48.00;;;;;;5166490;27;20442;-41
2021/06/03 00:26:58;;;;;;;1.13;0.83;;;32.10;48.10;;;;;;5166535;27;20790;-41
2021/06/03 00:29:30;;;;;;;2.50;1.40;;;31.90;47.80;;;;;;5166562;27;20450;-41
2021/06/03 00:32:00;;;;;;;1.83;1.00;;;31.80;47.40;;;;;;5167313;27;20446;-41
2021/06/03 00:34:31;;;;;;;3.03;1.70;;;31.70;46.90;;;;;;5167020;27;20453;-41
2021/06/03 00:37:02;;;;;;;1.30;1.20;;;31.80;47.50;;;;;;5166752;27;20495;-41
2021/06/03 00:39:32;;;;;;;1.63;1.30;;;31.70;49.00;;;;;;5166132;27;20450;-41
2021/06/03 00:42:03;;;;;;;1.50;1.40;;;31.60;49.20;;;;;;5167180;27;20443;-41
2021/06/03 00:44:35;;;;;;;1.50;1.40;;;31.60;48.20;;;;;;5166818;27;20495;-41
2021/06/03 00:47:06;;;;;;;1.60;1.40;;;31.50;48.60;;;;;;5166914;27;20490;-41
2021/06/03 00:49:37;;;;;;;1.70;1.03;;;31.40;48.50;;;;;;5166799;27;20446;-41
2021/06/03 00:52:07;;;;;;;1.30;1.20;;;31.30;48.90;;;;;;5166670;27;20889;-41
2021/06/03 00:54:38;;;;;;;1.63;1.50;;;31.20;48.90;;;;;;5165960;27;20432;-41
2021/06/03 00:57:09;;;;;;;1.30;1.30;;;31.20;49.40;;;;;;5166771;27;20952;-41
2021/06/03 00:59:41;;;;;;;1.53;1.43;;;31.10;49.80;;;;;;5145416;27;20455;-42
2021/06/03 01:02:12;;;;;;;2.37;1.30;;;31.10;49.10;;;;;;5145840;27;20446;-41
2021/06/03 01:04:43;;;;;;;2.03;1.70;;;31.00;48.90;;;;;;5145308;27;20454;-41
2021/06/03 01:07:13;;;;;;;1.93;1.80;;;30.90;49.30;;;;;;5159436;27;20483;-42
2021/06/03 01:09:54;;;;;;;2.00;1.70;;;30.90;48.80;;;;;;5165699;27;20459;-41
2021/06/03 01:12:33;;;;;;;1.73;1.63;;;30.90;49.00;;;;;;5173895;27;20488;-42
2021/06/03 01:15:09;;;;;;;3.40;2.80;;;30.90;49.30;;;;;;5165408;27;20468;-41
2021/06/03 01:17:40;;;;;;;1.90;1.77;;;30.70;49.30;;;;;;5165852;27;20456;-41
2021/06/03 01:20:12;;;;;;;2.03;1.83;;;30.60;50.60;;;;;;5164725;27;20459;-41
2021/06/03 01:22:53;;;;;;;2.70;1.97;;;30.60;49.80;;;;;;5164816;27;20472;-42
2021/06/03 01:25:27;;;;;;;3.87;3.07;;;30.50;49.00;;;;;;5164628;27;20428;-41
2021/06/03 01:27:57;;;;;;;2.83;2.40;;;30.40;49.00;;;;;;5164572;27;20436;-41
2021/06/03 01:30:34;;;;;;;1.83;1.73;;;30.30;49.80;;;;;;5165523;27;20464;-41
2021/06/03 01:33:08;;;;;;;2.43;1.93;;;30.20;50.30;;;;;;5165116;27;20482;-41
2021/06/03 01:35:41;;;;;;;2.73;1.70;;;30.20;51.30;;;;;;5165453;27;20452;-41
2021/06/03 01:38:15;;;;;;;1.80;1.70;;;30.20;51.20;;;;;;5163295;27;20503;-40
2021/06/03 01:40:49;;;;;;;2.20;1.73;;;30.10;51.90;;;;;;5164308;27;20479;-40
2021/06/03 01:43:21;;;;;;;1.90;1.80;;;30.20;52.10;;;;;;5165286;27;20462;-41
2021/06/03 01:45:52;;;;;;;2.40;1.67;;;30.10;51.70;;;;;;5164955;27;20769;-41
2021/06/03 01:48:23;;;;;;;1.80;1.70;;;30.00;52.50;;;;;;5164920;27;20463;-41
2021/06/03 01:50:56;;;;;;;2.13;2.00;;;29.90;52.60;;;;;;5165025;27;20525;-41
2021/06/03 01:53:28;;;;;;;2.53;2.33;;;29.80;52.70;;;;;;5163284;27;20538;-41
2021/06/03 01:56:05;;;;;;;2.20;2.07;;;29.80;53.80;;;;;;5164983;27;20451;-41
2021/06/03 01:58:36;;;;;;;2.00;1.90;;;29.80;53.80;;;;;;5164906;27;20847;-41
2021/06/03 02:01:07;;;;;;;1.90;1.80;;;29.60;54.30;;;;;;5164730;27;20582;-42
2021/06/03 02:03:38;;;;;;;2.97;2.67;;;29.50;55.10;;;;;;5164656;27;20506;-41
2021/06/03 02:06:09;;;;;;;2.33;2.20;;;29.40;55.80;;;;;;5164985;27;20539;-42
2021/06/03 02:08:39;;;;;;;2.60;2.40;;;29.30;56.70;;;;;;5163393;27;20489;-41
2021/06/03 02:11:12;;;;;;;2.03;1.73;;;29.30;57.10;;;;;;5165002;27;20529;-41
2021/06/03 02:13:45;;;;;;;2.47;2.10;;;29.20;57.40;;;;;;5164947;27;20463;-41
2021/06/03 02:16:21;;;;;;;2.00;1.90;;;29.20;57.60;;;;;;5164774;27;20589;-41
2021/06/03 02:18:56;;;;;;;2.60;2.33;;;29.10;57.30;;;;;;5163893;27;20450;-41
2021/06/03 02:21:28;;;;;;;2.73;2.27;;;29.10;57.70;;;;;;5161602;27;20446;-41
2021/06/03 02:24:00;;;;;;;2.27;2.07;;;29.10;57.70;;;;;;5163364;27;20483;-41
2021/06/03 02:26:34;;;;;;;2.30;2.10;;;29.00;57.40;;;;;;5164780;27;20548;-41
2021/06/03 02:29:05;;;;;;;2.20;2.10;;;29.00;58.00;;;;;;5163768;27;20462;-41
2021/06/03 02:31:36;;;;;;;4.03;2.40;;;28.90;57.80;;;;;;5149032;27;20447;-40
2021/06/03 02:34:07;;;;;;;5.40;2.00;;;28.90;57.80;;;;;;5163966;27;20534;-41
2021/06/03 02:36:38;;;;;;;3.93;2.07;;;28.80;58.10;;;;;;5164357;27;20532;-41
2021/06/03 02:39:10;;;;;;;4.07;1.93;;;28.70;58.60;;;;;;5162799;27;20467;-41
2021/06/03 02:41:42;;;;;;;2.50;2.30;;;28.70;59.30;;;;;;5159776;27;20536;-41
2021/06/03 02:44:13;;;;;;;2.13;1.93;;;28.60;59.20;;;;;;5163692;27;20445;-42
2021/06/03 02:46:43;;;;;;;3.80;1.87;;;28.60;59.10;;;;;;5164364;27;20586;-41
2021/06/03 02:49:14;;;;;;;2.13;1.93;;;28.50;59.40;;;;;;5162886;27;20452;-41
2021/06/03 02:51:44;;;;;;;2.67;2.00;;;28.40;60.10;;;;;;5164269;27;20749;-41
2021/06/03 02:54:15;;;;;;;2.00;1.80;;;28.30;60.50;;;;;;5162367;27;20479;-41
2021/06/03 02:56:47;;;;;;;2.23;2.00;;;28.20;61.20;;;;;;5163865;27;20525;-41
2021/06/03 02:59:17;;;;;;;2.40;1.87;;;28.10;62.20;;;;;;5163938;27;20435;-41
2021/06/03 03:01:48;;;;;;;1.53;1.30;;;28.10;62.00;;;;;;5149486;27;20474;-43
2021/06/03 03:04:18;;;;;;;2.97;1.73;;;27.90;62.40;;;;;;5162608;27;20469;-41
2021/06/03 03:06:49;;;;;;;1.83;1.73;;;27.80;62.60;;;;;;5158058;27;20499;-40
2021/06/03 03:09:19;;;;;;;2.03;1.43;;;27.70;63.60;;;;;;5163187;27;20907;-41
2021/06/03 03:11:52;;;;;;;1.93;1.83;;;27.60;63.00;;;;;;5164303;27;20577;-41
2021/06/03 03:14:22;;;;;;;2.50;1.30;;;27.50;64.10;;;;;;5161684;27;20450;-41
2021/06/03 03:16:54;;;;;;;5.90;1.70;;;27.30;64.40;;;;;;5164051;27;20469;-40
2021/06/03 03:19:24;;;;;;;2.60;1.40;;;27.10;65.50;;;;;;5163197;27;20452;-40
2021/06/03 03:21:55;;;;;;;2.00;1.80;;;27.00;64.90;;;;;;5163987;27;20447;-40
2021/06/03 03:24:25;;;;;;;1.90;1.53;;;26.90;65.40;;;;;;5161913;27;20452;-40
2021/06/03 03:26:57;;;;;;;1.43;1.20;;;26.80;66.20;;;;;;5165488;27;20478;-41
2021/06/03 03:29:28;;;;;;;2.13;1.30;;;26.70;67.10;;;;;;5159515;27;20458;-41
2021/06/03 03:31:58;;;;;;;0.97;0.97;;;26.50;67.40;;;;;;5154062;27;20479;-40
2021/06/03 03:34:29;;;;;;;1.93;1.37;;;26.40;68.30;;;;;;5162635;27;20479;-40
2021/06/03 03:39:48;;;;;;;1.83;1.50;;;26.20;69.10;;;;;;5154396;27;20452;-41
2021/06/03 03:42:20;;;;;;;1.40;1.30;;;26.00;70.00;;;;;;5161969;27;20436;-41
2021/06/03 03:44:51;;;;;;;2.67;1.20;;;25.90;71.10;;;;;;5159553;27;20456;-40
2021/06/03 03:47:21;;;;;;;1.30;1.20;;;25.80;71.50;;;;;;5162834;27;20499;-41
2021/06/03 03:49:52;;;;;;;1.37;1.27;;;25.70;71.60;;;;;;5150905;27;20452;-40
2021/06/03 03:52:23;;;;;;;1.90;1.50;;;25.60;71.80;;;;;;5159167;27;20455;-42
2021/06/03 03:54:53;;;;;;;1.47;1.00;;;25.40;73.10;;;;;;5156651;27;20459;-39
2021/06/03 03:57:25;;;;;;;1.47;1.37;;;25.30;72.90;;;;;;5157263;27;20777;-41
2021/06/03 03:59:56;;;;;;;1.50;1.40;;;25.20;73.20;;;;;;5163277;27;20477;-41
2021/06/03 04:02:26;;;;;;;2.20;1.20;;;25.10;73.80;;;;;;5166142;27;20451;-41
2021/06/03 04:04:57;;;;;;;2.23;1.10;;;25.00;73.50;;;;;;5166961;27;20447;-40
2021/06/03 04:07:27;;;;;;;1.97;1.43;;;24.80;74.30;;;;;;5167430;27;20980;-41
2021/06/03 04:09:58;;;;;;;2.00;1.23;;;24.70;74.40;;;;;;5166315;27;20483;-41
2021/06/03 04:12:30;;;;;;;4.57;1.47;;;24.60;74.50;;;;;;5166963;27;20464;-41
2021/06/03 04:15:00;;;;;;;4.53;0.90;;;24.50;74.30;;;;;;5167115;27;20464;-40
2021/06/03 04:17:31;;;;;;;1.67;1.17;;;24.40;74.30;;;;;;5167465;27;20448;-41
2021/06/03 04:20:01;;;;;;;1.37;1.27;;;24.40;74.30;;;;;;5166299;27;21054;-40
2021/06/03 04:22:32;;;;;;;1.40;1.20;;;24.20;75.00;;;;;;5165560;27;20452;-41
2021/06/03 04:25:03;;;;;;;1.60;1.10;;;24.10;76.10;;;;;;5156648;27;20444;-40
2021/06/03 04:27:36;;;;;;;2.33;1.43;;;24.00;75.70;;;;;;5157605;27;20500;-41
2021/06/03 04:30:08;;;;;;;1.27;1.10;;;24.00;75.30;;;;;;5163956;27;20475;-41
2021/06/03 04:32:39;;;;;;;1.23;1.13;;;23.90;75.70;;;;;;5166674;27;20456;-41
2021/06/03 04:35:10;;;;;;;2.07;1.10;;;23.90;75.90;;;;;;5165905;27;20483;-41
2021/06/03 04:37:43;;;;;;;1.73;1.00;;;23.80;76.70;;;;;;5163008;27;20483;-41
2021/06/03 04:40:15;;;;;;;1.47;0.70;;;23.70;76.60;;;;;;5165502;27;20475;-40
2021/06/03 04:42:49;;;;;;;1.80;1.20;;;23.60;76.50;;;;;;5159629;27;20445;-40
2021/06/03 04:45:21;;;;;;;2.73;1.10;;;23.60;76.80;;;;;;5166076;27;20418;-40
2021/06/03 04:47:55;;;;;;;2.10;1.00;;;23.50;78.20;;;;;;5156227;27;21591;-41
2021/06/03 04:50:28;;;;;;;0.93;0.93;;;23.40;78.00;;;;;;5166568;27;20470;-41
2021/06/03 04:53:00;;;;;;;1.10;1.00;;;23.30;78.50;;;;;;5165580;27;20770;-41
2021/06/03 04:55:31;;;;;;;1.00;1.00;;;23.20;78.10;;;;;;5166343;27;20444;-40
2021/06/03 04:58:05;;;;;;;0.90;0.90;;;23.20;78.70;;;;;;5166207;27;20514;-41
2021/06/03 05:00:38;;;;;;;2.00;1.20;;;23.10;79.20;;;;;;5166401;27;20457;-40
2021/06/03 05:03:09;;;;;;;1.10;1.10;;;23.10;78.60;;;;;;5165990;27;20646;-42
2021/06/03 05:05:45;;;;;;;1.20;1.10;;;23.00;78.90;;;;;;5165492;27;20816;-42
2021/06/03 05:08:15;;;;;;;0.83;0.83;;;22.90;78.80;;;;;;5164713;27;20434;-42
2021/06/03 05:10:46;;;;;;;0.80;0.70;;;22.90;80.00;;;;;;5155314;27;20823;-42
2021/06/03 05:13:18;;;;;;;1.30;1.00;;;22.80;80.00;;;;;;5165819;27;20471;-42
2021/06/03 05:15:48;;;;;;;2.10;1.30;;;22.70;80.70;;;;;;5165849;27;20452;-42
2021/06/03 05:18:19;;;;;;;1.00;0.90;;;22.60;81.70;;;;;;5165962;27;20506;-42
2021/06/03 05:20:50;;;;;;;0.90;0.90;;;22.50;82.80;;;;;;5165295;27;20448;-42
2021/06/03 05:23:22;;;;;;;0.80;0.80;;;22.50;83.40;;;;;;5161505;27;20434;-40
2021/06/03 05:25:53;;;;;;;0.90;0.90;;;22.40;83.10;;;;;;5163775;27;20448;-40
2021/06/03 05:28:25;;;;;;;1.60;1.00;;;22.30;83.70;;;;;;5166133;27;20443;-40
2021/06/03 05:30:55;;;;;;;1.60;1.30;;;22.20;84.30;;;;;;5165586;27;20444;-41
2021/06/03 05:33:26;;;;;;;1.03;0.93;;;22.10;85.20;;;;;;5165584;27;20803;-40
2021/06/03 05:35:56;;;;;;;1.87;1.20;;;22.00;86.40;;;;;;5165292;27;20566;-40
2021/06/03 05:38:45;;;;;;;1.57;1.30;;;22.00;87.00;;;;;;5164722;27;20450;-40
2021/06/03 05:41:16;;;;;;;1.27;1.10;;;22.00;87.30;;;;;;5156027;27;20896;-45
2021/06/03 05:43:48;;;;;;;2.30;1.37;;;21.80;88.90;;;;;;5164922;27;20524;-41
2021/06/03 05:46:18;;;;;;;1.23;1.00;;;21.80;89.60;;;;;;5160884;27;20422;-41
2021/06/03 05:48:49;;;;;;;2.00;1.10;;;21.70;90.50;;;;;;5165510;27;20795;-40
2021/06/03 05:51:20;;;;;;;1.47;0.83;;;21.70;90.60;;;;;;5166949;27;20447;-40
2021/06/03 05:53:51;;;;;;;1.27;1.17;;;21.70;90.80;;;;;;5152568;27;20440;-42
2021/06/03 05:56:25;;;;;;;1.73;1.00;;;21.60;91.30;;;;;;5156206;27;20423;-41
2021/06/03 05:58:57;;;;;;;1.70;1.40;;;21.50;91.60;;;;;;5156114;27;20525;-41
2021/06/03 06:01:28;;;;;;;1.77;1.20;;;21.50;91.90;;;;;;5155396;27;20597;-42
2021/06/03 06:04:12;;;;;;;1.27;1.17;;;21.40;92.60;;;;;;5157258;27;20419;-40
2021/06/03 06:06:42;;;;;;;1.33;1.23;;;21.30;93.30;;;;;;5155905;27;20445;-40
2021/06/03 06:09:14;;;;;;;1.40;1.13;;;21.20;94.00;;;;;;5161013;27;20437;-39
2021/06/03 06:11:44;;;;;;;2.00;1.13;;;21.10;94.80;;;;;;5165020;27;20444;-41
2021/06/03 06:14:17;;;;;;;1.00;1.00;;;21.10;95.30;;;;;;5165297;27;20426;-41
2021/06/03 06:16:48;;;;;;;1.30;1.17;;;21.00;96.00;;;;;;5164892;27;20419;-41
2021/06/03 06:19:18;;;;;;;1.90;1.27;;;21.00;96.40;;;;;;5164394;27;20818;-41
2021/06/03 06:21:49;;;;;;;2.50;1.40;;;21.00;97.00;;;;;;5164647;27;20562;-41
2021/06/03 06:24:19;;;;;;;2.00;1.50;;;20.90;97.40;;;;;;5163594;27;20478;-41
2021/06/03 06:26:50;;;;;;;1.93;1.37;;;20.80;97.70;;;;;;5165221;27;20451;-41
2021/06/03 06:29:22;;;;;;;1.30;1.20;;;20.80;98.40;;;;;;5165319;27;20444;-42
2021/06/03 06:31:53;;;;;;;1.23;1.10;;;20.80;98.50;;;;;;5165002;27;20479;-42
2021/06/03 06:34:23;;;;;;;3.30;1.30;;;20.70;99.00;;;;;;5164584;27;20486;-42
2021/06/03 06:36:54;;;;;;;2.70;1.43;;;20.70;99.40;;;;;;5164749;27;20465;-41
2021/06/03 06:39:25;;;;;;;1.30;1.30;;;20.60;99.90;;;;;;5163564;27;20503;-41
2021/06/03 06:41:55;;;;;;;1.40;1.30;;;20.50;99.90;;;;;;5164891;27;20454;-41
2021/06/03 06:44:27;;;;;;;1.97;1.27;;;20.50;99.90;;;;;;5164514;27;20410;-41
2021/06/03 06:46:58;;;;;;;1.20;1.10;;;20.40;99.90;;;;;;5165026;27;20455;-40
2021/06/03 06:49:28;;;;;;;1.60;1.30;;;20.40;99.90;;;;;;5164265;27;20978;-41
2021/06/03 06:51:59;;;;;;;1.50;1.40;;;20.40;99.90;;;;;;5164591;27;20508;-41
2021/06/03 06:54:32;;;;;;;1.40;1.30;;;20.40;99.90;;;;;;5163624;27;20443;-42
2021/06/03 06:57:04;;;;;;;1.63;1.30;;;20.30;99.90;;;;;;5165057;27;20471;-42
2021/06/03 06:59:36;;;;;;;1.17;1.10;;;20.30;99.90;;;;;;5162164;27;20557;-41
2021/06/03 07:02:07;;;;;;;1.00;1.00;;;20.30;99.90;;;;;;5164114;27;20444;-43
2021/06/03 07:04:37;;;;;;;1.10;1.00;;;20.20;99.90;;;;;;5163423;27;20481;-42
2021/06/03 07:07:08;;;;;;;1.30;1.20;;;20.10;99.90;;;;;;5164078;27;20448;-43
2021/06/03 07:09:38;;;;;;;1.00;1.00;;;20.00;99.90;;;;;;5163432;27;20934;-42
2021/06/03 07:12:09;;;;;;;1.83;1.40;;;20.00;99.90;;;;;;5164235;27;20511;-42
2021/06/03 07:14:42;;;;;;;1.40;1.30;;;20.00;99.90;;;;;;5164037;27;20472;-42
2021/06/03 07:17:12;;;;;;;1.90;1.30;;;20.00;99.90;;;;;;5164124;27;20552;-41
2021/06/03 07:19:43;;;;;;;1.60;1.50;;;19.90;99.90;;;;;;5164006;27;20490;-41
2021/06/03 07:22:13;;;;;;;1.80;1.50;;;19.90;99.90;;;;;;5164635;27;20458;-41
2021/06/03 07:24:44;;;;;;;1.67;1.57;;;19.80;99.90;;;;;;5162648;27;20415;-40
2021/06/03 07:27:15;;;;;;;2.00;1.27;;;19.80;99.90;;;;;;5164828;27;20446;-41
2021/06/03 07:29:47;;;;;;;2.90;1.60;;;19.60;99.90;;;;;;5163790;27;20491;-41
2021/06/03 07:32:17;;;;;;;1.87;1.27;;;19.60;99.90;;;;;;5164593;27;20422;-41
2021/06/03 07:34:48;;;;;;;1.90;1.60;;;19.50;99.90;;;;;;5163729;27;20436;-41
2021/06/03 07:37:20;;;;;;;1.43;1.20;;;19.60;99.90;;;;;;5152056;27;20503;-41
2021/06/03 07:39:51;;;;;;;1.90;1.80;;;19.50;99.90;;;;;;5166824;27;20471;-42
2021/06/03 07:42:22;;;;;;;2.17;1.57;;;19.40;99.90;;;;;;5168407;27;20410;-41
2021/06/03 07:44:54;;;;;;;2.17;1.10;;;19.40;99.90;;;;;;5167509;27;20482;-42
2021/06/03 07:47:24;;;;;;;1.87;1.37;;;19.40;99.90;;;;;;5167889;27;20539;-41
2021/06/03 07:49:55;;;;;;;1.30;1.20;;;19.40;99.90;;;;;;5167580;27;20496;-40
2021/06/03 07:52:25;;;;;;;1.50;1.40;;;19.30;99.90;;;;;;5167970;27;20481;-40
2021/06/03 07:54:56;;;;;;;1.70;1.60;;;19.30;99.90;;;;;;5167533;27;20448;-41
2021/06/03 07:57:27;;;;;;;3.63;1.60;;;19.20;99.90;;;;;;5168380;27;20458;-40
2021/06/03 08:00:00;;;;;;;1.37;1.27;;;19.20;99.90;;;;;;5158267;27;20490;-41
2021/06/03 08:02:30;;;;;;;2.37;1.33;;;19.10;99.90;;;;;;5167865;27;20418;-40
2021/06/03 08:05:01;;;;;;;2.03;1.60;;;19.10;99.90;;;;;;5168001;27;20459;-41
2021/06/03 08:07:31;;;;;;;1.43;1.20;;;19.10;99.90;;;;;;5167715;27;20893;-39
2021/06/03 08:10:02;;;;;;;1.73;1.40;;;19.00;99.90;;;;;;5153551;27;20515;-40
2021/06/03 08:12:32;;;;;;;2.90;1.50;;;19.00;99.90;;;;;;5167211;27;20448;-41
2021/06/03 08:15:07;;;;;;;1.50;1.40;;;18.90;99.90;;;;;;5159838;27;20452;-41
2021/06/03 08:17:38;;;;;;;2.53;1.37;;;18.90;99.90;;;;;;5165866;27;20443;-40
2021/06/03 08:20:13;;;;;;;2.23;1.60;;;18.90;99.90;;;;;;5164964;27;20468;-41
2021/06/03 08:22:44;;;;;;;1.90;1.40;;;18.80;99.90;;;;;;5166493;27;20445;-40
2021/06/03 08:25:16;;;;;;;2.07;1.57;;;18.80;99.90;;;;;;5164803;27;20406;-40
2021/06/03 08:27:47;;;;;;;3.53;1.40;;;18.80;99.90;;;;;;5166918;27;20894;-40
2021/06/03 08:30:21;;;;;;;1.80;1.33;;;18.70;99.90;;;;;;5166956;27;20444;-40
2021/06/03 08:32:53;;;;;;;2.00;1.43;;;18.60;99.90;;;;;;5167317;27;20448;-41
2021/06/03 08:35:24;;;;;;;1.30;1.20;;;18.50;99.90;;;;;;5167249;27;20480;-40
2021/06/03 08:37:57;;;;;;;3.83;1.60;;;18.50;99.90;;;;;;5166459;27;20471;-40
2021/06/03 08:40:31;;;;;;;3.10;1.30;;;18.40;99.90;;;;;;5166444;27;20504;-40
2021/06/03 08:43:03;;;;;;;1.73;1.30;;;18.40;99.90;;;;;;5166426;27;20472;-40
2021/06/03 08:45:37;;;;;;;1.83;1.17;;;18.30;99.90;;;;;;5166817;27;20435;-40
2021/06/03 08:48:09;;;;;;;1.50;1.40;;;18.20;99.90;;;;;;5165858;27;20457;-40
2021/06/03 08:50:41;;;;;;;2.83;1.80;;;18.20;99.90;;;;;;5167032;27;20516;-40
2021/06/03 08:53:12;;;;;;;1.50;1.40;;;18.20;99.90;;;;;;5165524;27;20452;-41
2021/06/03 08:58:32;;;;;;;2.80;1.73;;;18.10;99.90;;;;;;5149651;27;20540;-41
2021/06/03 09:01:06;;;;;;;3.20;1.60;;;18.10;99.90;;;;;;5165970;27;20472;-41
2021/06/03 09:03:37;;;;;;;1.57;1.30;;;18.00;99.90;;;;;;5166455;27;20440;-41
2021/06/03 09:06:09;;;;;;;5.93;2.00;;;18.00;99.90;;;;;;5166235;27;20444;-41
2021/06/03 09:08:41;;;;;;;1.57;1.40;;;17.90;99.90;;;;;;5148856;27;20475;-39
2021/06/03 09:11:14;;;;;;;1.40;1.30;;;17.80;99.90;;;;;;5157212;27;20547;-41
2021/06/03 09:13:47;;;;;;;2.00;1.40;;;17.70;99.90;;;;;;5164598;27;20426;-41
2021/06/03 09:16:22;;;;;;;1.70;1.60;;;17.80;99.90;;;;;;5166267;27;20419;-41
2021/06/03 09:18:54;;;;;;;1.90;1.70;;;17.80;99.90;;;;;;5147021;27;20454;-41
2021/06/03 09:21:26;;;;;;;3.20;1.83;;;17.80;99.90;;;;;;5159707;27;20444;-41
2021/06/03 09:24:02;;;;;;;3.60;1.60;;;17.70;99.90;;;;;;5165653;27;20836;-41
2021/06/03 09:26:36;;;;;;;1.60;1.50;;;17.60;99.90;;;;;;5164992;27;20444;-41
2021/06/03 09:29:07;;;;;;;2.17;1.97;;;17.50;99.90;;;;;;5166271;27;20436;-41
2021/06/03 09:31:40;;;;;;;3.00;2.00;;;17.60;99.90;;;;;;5165828;27;20448;-41
2021/06/03 09:34:13;;;;;;;2.10;1.70;;;17.60;99.90;;;;;;5165779;27;20444;-41
2021/06/03 09:36:46;;;;;;;1.93;1.77;;;17.60;99.90;;;;;;5165556;27;20505;-41
2021/06/03 09:39:23;;;;;;;1.80;1.70;;;17.50;99.90;;;;;;5165937;27;20475;-40
2021/06/03 09:41:56;;;;;;;2.03;1.53;;;17.40;99.90;;;;;;5164729;27;20458;-40
2021/06/03 09:44:33;;;;;;;3.53;1.60;;;17.40;99.90;;;;;;5165840;27;20410;-41
2021/06/03 09:47:26;;;;;;;2.47;1.47;;;17.40;99.90;;;;;;5165591;27;20445;-41
2021/06/03 09:50:00;;;;;;;1.43;1.33;;;17.20;99.90;;;;;;5165661;27;20487;-40
2021/06/03 09:52:32;;;;;;;2.97;1.80;;;17.20;99.90;;;;;;5163358;27;20455;-40
2021/06/03 09:55:07;;;;;;;1.70;1.60;;;17.20;99.90;;;;;;5165710;27;20531;-40
2021/06/03 09:57:39;;;;;;;5.33;1.77;;;17.20;99.90;;;;;;5164432;27;20452;-42
2021/06/03 10:00:11;;;;;;;2.13;1.60;;;17.10;99.90;;;;;;5164553;27;20510;-41
2021/06/03 10:02:44;;;;;;;1.60;1.50;;;17.10;99.90;;;;;;5165230;27;20436;-41
2021/06/03 10:05:17;;;;;;;1.77;1.20;;;17.00;99.90;;;;;;5165801;27;20549;-40
2021/06/03 10:07:56;;;;;;;2.53;2.10;;;17.00;99.90;;;;;;5164889;27;20508;-41
2021/06/03 10:10:28;;;;;;;1.60;1.50;;;17.10;99.90;;;;;;5164755;27;20451;-41
2021/06/03 10:12:59;;;;;;;2.73;1.20;;;17.00;99.90;;;;;;5149212;27;20471;-41
2021/06/03 10:15:39;;;;;;;2.53;1.40;;;17.00;99.90;;;;;;5165321;27;20451;-40
2021/06/03 10:18:14;;;;;;;1.83;1.73;;;17.00;99.90;;;;;;5164850;27;20450;-40
2021/06/03 10:20:46;;;;;;;1.77;1.30;;;17.00;99.90;;;;;;5164955;27;20528;-40
2021/06/03 10:23:19;;;;;;;1.23;1.13;;;17.00;99.90;;;;;;5164885;27;20991;-41
2021/06/03 10:25:51;;;;;;;1.70;1.50;;;16.90;99.90;;;;;;5164011;27;20447;-41
2021/06/03 10:28:23;;;;;;;1.63;1.50;;;16.90;99.90;;;;;;5164767;27;20443;-40
2021/06/03 10:30:55;;;;;;;1.57;1.43;;;16.80;99.90;;;;;;5164031;27;20824;-41
2021/06/03 10:33:30;;;;;;;2.23;1.47;;;16.80;99.90;;;;;;5165119;27;20429;-42
2021/06/03 10:36:03;;;;;;;2.50;1.60;;;16.70;99.90;;;;;;5164528;27;20498;-41
2021/06/03 10:38:34;;;;;;;1.23;1.13;;;16.70;99.90;;;;;;5164680;27;20486;-42
2021/06/03 10:41:07;;;;;;;1.50;1.40;;;16.70;99.90;;;;;;5163656;27;20503;-42
2021/06/03 10:43:39;;;;;;;1.20;1.10;;;16.70;99.90;;;;;;5164737;27;20448;-42
2021/06/03 10:46:10;;;;;;;2.00;1.40;;;16.60;99.90;;;;;;5164449;27;20459;-42
2021/06/03 10:48:42;;;;;;;1.70;1.60;;;16.60;99.90;;;;;;5164712;27;20448;-41
2021/06/03 10:51:13;;;;;;;1.67;1.57;;;16.60;99.90;;;;;;5148003;27;20444;-42
2021/06/03 10:53:48;;;;;;;2.30;1.63;;;16.60;99.90;;;;;;5164552;27;20425;-42
2021/06/03 10:56:21;;;;;;;1.50;1.40;;;16.60;99.90;;;;;;5163588;27;20459;-41
2021/06/03 10:58:52;;;;;;;2.83;1.60;;;16.50;99.90;;;;;;5164516;27;20444;-41
2021/06/03 11:01:24;;;;;;;3.53;1.40;;;16.50;99.90;;;;;;5162678;27;20578;-41
2021/06/03 11:04:00;;;;;;;1.47;1.37;;;16.50;99.90;;;;;;5164715;27;20499;-41
2021/06/03 11:06:32;;;;;;;2.47;1.30;;;16.40;99.90;;;;;;5164268;27;20436;-41
2021/06/03 11:09:06;;;;;;;1.83;1.20;;;16.40;99.90;;;;;;5164341;27;20447;-41
2021/06/03 11:11:39;;;;;;;3.50;1.57;;;16.40;99.90;;;;;;5167088;27;20472;-41
2021/06/03 11:14:13;;;;;;;1.50;1.40;;;16.40;99.90;;;;;;5168707;27;20535;-41
2021/06/03 11:16:50;;;;;;;1.90;1.50;;;16.30;99.90;;;;;;5168397;27;20844;-39
2021/06/03 11:19:23;;;;;;;1.83;1.30;;;16.20;99.90;;;;;;5168461;27;20471;-41
2021/06/03 11:22:05;;;;;;;2.40;1.60;;;16.20;99.90;;;;;;5159060;27;20449;-42
2021/06/03 11:24:49;;;;;;;1.80;1.37;;;16.20;99.90;;;;;;5166876;27;20429;-41
2021/06/03 11:27:36;;;;;;;2.87;1.83;;;16.20;99.90;;;;;;5150417;27;20756;-41
2021/06/03 11:30:12;;;;;;;2.53;1.47;;;16.10;99.90;;;;;;5168083;27;20517;-41
2021/06/03 11:32:53;;;;;;;2.23;1.70;;;16.10;99.90;;;;;;5168170;27;20471;-41
2021/06/03 11:35:31;;;;;;;1.80;1.50;;;16.10;99.90;;;;;;5168201;27;20830;-41
2021/06/03 11:38:39;;;;;;;2.37;1.87;;;16.00;99.90;;;;;;5167853;27;20471;-41
2021/06/03 11:41:32;;;;;;;1.70;1.60;;;16.00;99.90;;;;;;5166947;27;20626;-42
2021/06/03 11:44:11;;;;;;;3.03;1.43;;;16.00;99.90;;;;;;5168385;27;20471;-41
2021/06/03 11:47:02;;;;;;;1.90;1.80;;;15.80;99.90;;;;;;5167892;27;20455;-41
2021/06/03 11:49:37;;;;;;;4.10;1.50;;;15.90;99.90;;;;;;5168110;27;20471;-42
2021/06/03 11:52:13;;;;;;;1.67;1.57;;;15.90;99.90;;;;;;5167548;27;20402;-42
2021/06/03 11:54:55;;;;;;;3.83;1.80;;;15.90;99.90;;;;;;5168150;27;20454;-42
2021/06/03 11:57:28;;;;;;;2.03;1.90;;;15.80;99.90;;;;;;5167340;27;20476;-40
2021/06/03 11:59:59;;;;;;;1.87;1.60;;;15.70;99.90;;;;;;5167463;27;20475;-40
2021/06/03 12:02:32;;;;;;;1.70;1.50;;;15.70;99.90;;;;;;5167623;27;20418;-41
2021/06/03 12:05:19;;;;;;;4.93;2.03;;;15.70;99.90;;;;;;5167840;27;20530;-41
2021/06/03 12:07:53;;;;;;;1.93;1.37;;;15.70;99.90;;;;;;5167756;27;20428;-41
2021/06/03 12:10:55;;;;;;;1.70;1.60;;;15.70;99.90;;;;;;5156155;27;20443;-40
2021/06/03 12:13:25;;;;;;;2.80;1.70;;;15.60;99.90;;;;;;5167992;27;20802;-40
2021/06/03 12:15:56;;;;;;;4.20;1.60;;;15.60;99.90;;;;;;5167281;27;20444;-41
2021/06/03 12:18:33;;;;;;;1.90;1.70;;;15.50;99.90;;;;;;5167392;27;20440;-41
2021/06/03 12:21:05;;;;;;;1.50;1.40;;;15.50;99.90;;;;;;5166343;27;20487;-42
2021/06/03 12:23:47;;;;;;;2.00;1.80;;;15.50;99.90;;;;;;5166981;27;20479;-41
2021/06/03 12:26:20;;;;;;;2.53;1.87;;;15.60;99.90;;;;;;5166571;27;20519;-41
2021/06/03 12:28:51;;;;;;;2.33;1.57;;;15.50;99.90;;;;;;5167442;27;20611;-41
2021/06/03 12:31:23;;;;;;;2.63;1.80;;;15.40;99.90;;;;;;5166992;27;20457;-41
2021/06/03 12:33:55;;;;;;;1.90;1.70;;;15.40;99.90;;;;;;5166908;27;20448;-41
2021/06/03 12:36:26;;;;;;;2.20;1.57;;;15.40;99.90;;;;;;5167147;27;20459;-41
2021/06/03 12:39:02;;;;;;;1.90;1.80;;;15.40;99.90;;;;;;5167088;27;20479;-41
2021/06/03 12:41:34;;;;;;;1.90;1.70;;;15.40;99.90;;;;;;5165948;27;20502;-41
2021/06/03 12:44:07;;;;;;;2.60;2.00;;;15.30;99.90;;;;;;5167096;27;20415;-41
2021/06/03 12:46:39;;;;;;;3.43;2.13;;;15.30;99.90;;;;;;5166510;27;20440;-41
2021/06/03 12:49:12;;;;;;;3.33;1.93;;;15.40;99.90;;;;;;5166859;27;20452;-41
2021/06/03 12:51:51;;;;;;;2.90;2.23;;;15.30;99.90;;;;;;5165815;27;20459;-41
2021/06/03 12:54:32;;;;;;;2.13;1.77;;;15.30;99.90;;;;;;5166347;27;20440;-41
2021/06/03 12:57:05;;;;;;;1.93;1.63;;;15.30;99.90;;;;;;5165462;27;20454;-41
2021/06/03 12:59:37;;;;;;;1.90;1.80;;;15.30;99.90;;;;;;5166115;27;20439;-41
2021/06/03 13:02:08;;;;;;;3.30;2.20;;;15.30;99.90;;;;;;5166074;27;20455;-41
2021/06/03 13:04:41;;;;;;;2.13;2.03;;;15.30;99.90;;;;;;5166202;27;20444;-41
2021/06/03 13:07:13;;;;;;;2.50;2.30;;;15.30;99.90;;;;;;5165412;27;20467;-41
2021/06/03 13:09:54;;;;;;;2.90;2.70;;;15.30;99.90;;;;;;5165874;27;20459;-41
2021/06/03 13:12:25;;;;;;;3.40;2.90;;;15.30;99.90;;;;;;5165385;27;20516;-41
2021/06/03 13:14:57;;;;;;;3.50;3.20;;;15.40;99.90;;;;;;5166421;27;20535;-41
2021/06/03 13:17:33;;;;;;;4.97;3.57;;;15.50;99.90;;;;;;5165831;27;20504;-41
2021/06/03 13:20:13;;;;;;;3.70;3.30;;;15.60;99.90;;;;;;5165698;27;20464;-41
2021/06/03 13:22:50;;;;;;;3.40;3.10;;;15.60;99.90;;;;;;5165681;27;20448;-41